Latest Coastal Weather Observations for Cape Borda

IDT60701

Issued at 12:15 am EST Thursday 24 July 2014 (issued every 10 minutes, with the page automatically refreshed every 10 minutes)

About coastal observations | Map of coastal stations | Coastal observations for TAS | Marine services | Other Formats
Station Details ID: 022823 Name: CAPE BORDA Lat: -35.75 Lon: 136.60 Height: 158.0 m
Data from the previous 72 hours. | See also: Recent months at Cape Borda
Date/Time
EST
Temp

°C
Wind Pressure Rain
since 9am
mm
Weather Cloud Vis
km
Sea
Height
m
Swell
Dir
 
Speed
knots
Gust
knots
hPa Trend Height
m
Period
s
Dir
24/12:00am 10.6 NE 18 26 1005.4 - 9.6 - - - - - - -
 
Date/Time
EST
Temp

°C
Wind Pressure Rain
since 9am
mm
Weather Cloud Vis
km
Sea
Height
m
Swell
Dir
 
Speed
knots
Gust
knots
hPa Trend Height
m
Period
s
Dir
23/11:30pm 10.6 NE 18 26 1005.8 - 9.4 - - - - - - -
23/11:00pm 10.8 ENE 18 27 1006.1 - 8.8 - - - - - - -
23/10:30pm 10.8 NE 19 27 1006.6 - 8.6 - - - - - - -
23/10:10pm 10.8 NE 19 29 1006.8 - 7.8 - - - - - - -
23/10:00pm 11.1 NE 17 26 1006.9 - 7.6 - - - - - - -
23/09:31pm 11.5 NE 19 29 1006.7 - 7.4 - - - - - - -
23/09:30pm 11.4 NE 20 29 1006.9 - 7.4 - - - - - - -
23/09:15pm 11.5 NE 19 32 1006.9 - 7.4 - - - - - - -
23/09:00pm 11.6 NE 18 24 1007.1 - 7.4 - - - - - - -
23/08:30pm 11.3 NE 19 33 1007.1 - 7.4 - - - - - - -
23/08:17pm 11.3 NE 18 28 1007.2 - 7.4 - - - - - - -
23/08:00pm 11.2 NE 17 23 1007.3 - 7.2 - - - - - - -
23/07:30pm 11.6 NE 18 26 1007.3 - 6.8 - - - - - - -
23/07:04pm 12.0 NE 16 26 1007.5 - 6.2 - - - - - - -
23/07:00pm 12.0 NE 17 25 1007.3 - 6.2 - - - - - - -
23/06:30pm 11.8 NE 19 30 1007.5 - 6.2 - - - - - - -
23/06:14pm 11.5 ENE 19 30 1007.3 - 6.0 - - - - - - -
23/06:00pm 11.6 ENE 21 29 1007.5 - 6.0 - - - - - - -
23/05:30pm 11.5 ENE 21 32 1007.7 - 6.0 - - - - - - -
23/05:00pm 11.8 ENE 21 32 1008.2 - 5.4 - - - - - - -
23/04:30pm 11.7 ENE 22 33 1007.9 - 5.4 - - - - - - -
23/04:00pm 11.6 ENE 21 32 1007.9 - 5.4 - - - - - - -
23/03:35pm 11.4 ENE 19 29 1007.8 - 4.8 - - - - - - -
23/03:30pm 11.4 ENE 20 27 1007.9 F 4.8 Rain Cloudy 18 1 3.1 8 SW
23/03:00pm 11.5 ENE 20 31 1008.6 - 4.6 - - - - - - -
23/02:56pm 11.4 ENE 20 31 1008.6 - 4.6 - - - - - - -
23/02:30pm 11.4 ENE 18 25 1009.0 - 4.6 - - - - - - -
23/02:09pm 11.2 ENE 18 29 1009.6 - 4.4 - - - - - - -
23/02:00pm 11.2 ENE 17 24 1009.5 - 4.4 - - - - - - -
23/01:30pm 11.1 ENE 17 24 1011.2 - 3.8 - - - - - - -
23/01:00pm 11.3 NE 17 24 1012.4 - 2.6 - - - - - - -
23/12:30pm 11.7 NNE 16 22 1013.6 - 1.0 - - - - - - -
23/12:00pm 12.1 NNE 16 23 1014.0 - 0.2 - - - - - - -
23/11:44am 12.8 NNE 15 25 1014.3 - 0.0 - - - - - - -
23/11:30am 13.4 N 16 23 1014.4 - 0.0 - - - - - - -
23/11:00am 13.4 NNE 12 19 1015.0 - 0.0 - - - - - - -
23/10:30am 13.3 NE 13 18 1015.3 - 0.0 - - - - - - -
23/10:00am 12.4 ENE 11 16 1015.2 - 0.0 - - - - - - -
23/09:30am 12.5 ENE 12 17 1015.2 F 0.0 Distant precip. Mostly cloudy 22 1 2.8 7 SW
23/09:00am 12.7 ENE 12 18 1015.0 - 0.0 - - - - - - -
23/08:30am 12.6 ENE 13 18 1015.3 - 0.0 - - - - - - -
23/08:00am 12.2 E 11 16 1015.2 - 0.0 - - - - - - -
23/07:30am 11.8 ENE 11 19 1015.4 - 0.0 - - - - - - -
23/07:00am 12.3 E 11 17 1015.7 - 0.0 - - - - - - -
23/06:30am 12.6 E 11 15 1016.1 F 0.0 Drizzle Cloudy 25 <0.5 3.6 8 SW
23/06:00am 12.7 NE 13 18 1016.3 - 0.0 - - - - - - -
23/05:30am 12.6 ENE 12 16 1015.9 - 0.0 - - - - - - -
23/05:00am 12.6 ENE 13 18 1016.0 - 0.0 - - - - - - -
23/04:30am 12.7 ENE 13 18 1016.4 - 0.0 - - - - - - -
23/04:00am 12.6 ENE 14 19 1016.5 - 0.0 - - - - - - -
23/03:30am 12.6 ENE 14 21 1017.0 - 0.0 - - - - - - -
23/03:00am 12.7 ENE 13 18 1017.2 - 0.0 - - - - - - -
23/02:30am 12.6 ENE 13 19 1017.5 - 0.0 - - - - - - -
23/02:00am 12.4 ENE 11 16 1017.6 - 0.0 - - - - - - -
23/01:30am 12.4 ENE 11 16 1017.8 - 0.0 - - - - - - -
23/01:00am 12.4 ENE 11 17 1018.1 - 0.0 - - - - - - -
23/12:30am 12.3 ENE 12 16 1018.7 - 0.0 - - - - - - -
23/12:00am 12.3 ENE 11 15 1018.9 - 0.0 - - - - - - -
 
Date/Time
EST
Temp

°C
Wind Pressure Rain
since 9am
mm
Weather Cloud Vis
km
Sea
Height
m
Swell
Dir
 
Speed
knots
Gust
knots
hPa Trend Height
m
Period
s
Dir
22/11:30pm 12.3 ENE 11 15 1019.1 - 0.0 - - - - - - -
22/11:00pm 12.2 ENE 11 14 1019.2 - 0.0 - - - - - - -
22/10:30pm 11.8 ENE 11 15 1019.3 - 0.0 - - - - - - -
22/10:00pm 11.8 ENE 12 15 1019.6 - 0.0 - - - - - - -
22/09:30pm 11.7 ENE 12 15 1019.9 - 0.0 - - - - - - -
22/09:00pm 11.9 ENE 12 16 1019.8 - 0.0 - - - - - - -
22/08:30pm 12.1 ENE 13 18 1019.6 - 0.0 - - - - - - -
22/08:00pm 12.0 ENE 12 16 1019.9 - 0.0 - - - - - - -
22/07:30pm 12.0 ENE 11 14 1020.1 - 0.0 - - - - - - -
22/07:00pm 12.1 ENE 10 13 1020.1 - 0.0 - - - - - - -
22/06:30pm 12.2 E 10 13 1020.0 - 0.0 - - - - - - -
22/06:00pm 12.4 E 9 12 1019.8 - 0.0 - - - - - - -
22/05:30pm 13.3 ENE 10 14 1020.1 - 0.0 - - - - - - -
22/05:00pm 14.2 ENE 10 14 1019.8 - 0.0 - - - - - - -
22/04:30pm 14.2 ENE 11 15 1019.5 - 0.0 - - - - - - -
22/04:00pm 14.9 ENE 10 13 1019.9 - 0.0 - - - - - - -
22/03:30pm 14.9 ENE 10 14 1020.1 F 0.0 Fine Mostly clear 25 <0.1 2.9 10 SW
22/03:00pm 14.3 ENE 12 15 1020.2 - 0.0 - - - - - - -
22/02:30pm 14.8 ENE 11 15 1020.5 - 0.0 - - - - - - -
22/02:00pm 14.8 ENE 10 15 1021.0 - 0.0 - - - - - - -
22/01:30pm 14.7 ENE 11 15 1021.5 - 0.0 - - - - - - -
22/01:00pm 14.7 NE 11 15 1021.9 - 0.0 - - - - - - -
22/12:30pm 14.2 ENE 11 16 1022.5 - 0.0 - - - - - - -
22/12:00pm 14.2 ENE 11 15 1022.6 - 0.0 - - - - - - -
22/11:30am 13.9 ENE 11 16 1022.9 - 0.0 - - - - - - -
22/11:00am 13.8 ENE 11 15 1023.1 - 0.0 - - - - - - -
22/10:30am 13.5 ENE 11 14 1023.0 - 0.0 - - - - - - -
22/10:00am 13.0 ENE 11 14 1023.1 - 0.0 - - - - - - -
22/09:30am 12.3 ENE 7 9 1023.1 F 0.0 Fine Mostly clear 25 <0.1 3.9 8 SW
22/09:00am 10.1 E 7 8 1022.6 - 0.0 - - - - - - -
22/08:30am 9.5 E 9 10 1022.4 - 0.0 - - - - - - -
22/08:00am 9.9 ENE 9 11 1022.5 - 0.0 - - - - - - -
22/07:30am 10.0 ENE 9 11 1022.4 - 0.0 - - - - - - -
22/07:00am 9.8 ENE 9 11 1022.0 - 0.0 - - - - - - -
22/06:30am 9.7 ENE 9 11 1022.1 R 0.0 Fine Clear 25 <0.1 2.9 10 SW
22/06:00am 10.2 ENE 9 11 1021.8 - 0.0 - - - - - - -
22/05:30am 9.9 ENE 9 11 1021.8 - 0.0 - - - - - - -
22/05:00am 9.7 ENE 9 11 1021.8 - 0.0 - - - - - - -
22/04:30am 9.6 ENE 9 11 1021.7 - 0.0 - - - - - - -
22/04:00am 10.1 ENE 8 10 1021.7 - 0.0 - - - - - - -
22/03:30am 10.6 ENE 9 11 1021.9 - 0.0 - - - - - - -
22/03:00am 11.0 NE 9 11 1021.7 - 0.0 - - - - - - -
22/02:30am 10.9 NE 9 13 1021.5 - 0.0 - - - - - - -
22/02:00am 11.1 NE 9 13 1021.6 - 0.0 - - - - - - -
22/01:30am 10.4 NE 9 11 1021.7 - 0.0 - - - - - - -
22/01:00am 10.6 ENE 9 12 1021.8 - 0.0 - - - - - - -
22/12:30am 10.0 ENE 8 10 1022.2 - 0.0 - - - - - - -
22/12:00am 10.4 ENE 7 8 1022.0 - 0.0 - - - - - - -
 
Date/Time
EST
Temp

°C
Wind Pressure Rain
since 9am
mm
Weather Cloud Vis
km
Sea
Height
m
Swell
Dir
 
Speed
knots
Gust
knots
hPa Trend Height
m
Period
s
Dir
21/11:30pm 10.8 NE 7 10 1022.0 - 0.0 - - - - - - -
21/11:00pm 11.0 NE 7 10 1021.9 - 0.0 - - - - - - -
21/10:30pm 11.2 NE 7 10 1021.9 - 0.0 - - - - - - -
21/10:00pm 11.5 NNE 7 9 1021.9 - 0.0 - - - - - - -
21/09:30pm 11.7 NE 7 11 1021.9 - 0.0 - - - - - - -
21/09:00pm 11.9 ENE 9 12 1021.5 - 0.0 - - - - - - -
21/08:30pm 12.0 ENE 9 13 1021.3 - 0.0 - - - - - - -
21/08:00pm 11.7 ENE 8 11 1021.3 - 0.0 - - - - - - -
21/07:30pm 11.9 NE 8 11 1021.0 - 0.0 - - - - - - -
21/07:00pm 11.7 ENE 9 11 1020.6 - 0.0 - - - - - - -
21/06:30pm 11.6 NE 8 11 1020.5 - 0.0 - - - - - - -
21/06:00pm 11.8 NE 8 11 1020.1 - 0.0 - - - - - - -
21/05:30pm 11.8 NE 8 10 1020.1 - 0.0 - - - - - - -
21/05:00pm 12.1 NE 7 9 1019.9 - 0.0 - - - - - - -
21/04:30pm 12.4 NE 7 9 1020.0 - 0.0 - - - - - - -
21/04:00pm 12.6 NE 8 11 1019.8 - 0.0 - - - - - - -
21/03:30pm 12.6 NE 8 10 1019.9 R 0.0 Fine Mostly cloudy 25 <0.5 4.0 10 SW
21/03:00pm 12.9 NE 9 11 1019.6 - 0.0 - - - - - - -
21/02:30pm 13.7 ENE 9 12 1019.4 - 0.0 - - - - - - -
21/02:00pm 12.7 ENE 9 12 1019.7 - 0.0 - - - - - - -
21/01:30pm 13.2 NE 9 13 1020.0 - 0.0 - - - - - - -
21/01:00pm 12.0 NE 9 11 1020.5 - 0.0 - - - - - - -
21/12:30pm 11.9 NE 10 13 1021.1 - 0.0 - - - - - - -
21/12:00pm 12.0 NE 10 13 1021.4 - 0.0 - - - - - - -
21/11:30am 12.7 NE 9 12 1021.5 - 0.0 - - - - - - -
21/11:00am 11.7 NE 9 13 1021.6 - 0.0 - - - - - - -
21/10:30am 11.5 NE 9 12 1021.6 - 0.0 - - - - - - -
21/10:00am 11.6 NE 10 13 1021.6 - 0.0 - - - - - - -
21/09:30am 12.3 ENE 10 15 1021.5 F 0.2 Fine Mostly cloudy 18 <0.5 4.0 11 SW
21/09:00am 10.9 ENE 8 12 1021.3 - 0.2 - - - - - - -
21/08:30am 10.6 ENE 8 11 1021.0 - 0.2 - - - - - - -
21/08:00am 10.5 NE 9 12 1020.9 - 0.2 - - - - - - -
21/07:30am 10.5 NE 9 13 1020.8 - 0.2 - - - - - - -
21/07:00am 10.7 NE 10 13 1020.5 - 0.2 - - - - - - -
21/06:30am 10.8 NNE 9 12 1020.5 F 0.2 Fine Mostly clear 25 <0.5 4.0 10 SW
21/06:00am 10.7 NE 9 13 1020.3 - 0.2 - - - - - - -
21/05:30am 10.7 NE 9 12 1020.3 - 0.2 - - - - - - -
21/05:00am 10.9 NE 10 15 1020.3 - 0.2 - - - - - - -
21/04:30am 10.9 NNE 10 15 1020.5 - 0.2 - - - - - - -
21/04:00am 11.1 NNE 9 14 1020.6 - 0.2 - - - - - - -
21/03:30am 10.9 NE 9 13 1020.9 - 0.2 - - - - - - -
21/03:00am 10.8 NNE 10 14 1021.0 - 0.2 - - - - - - -
21/02:30am 10.7 NNE 9 13 1021.1 - 0.2 - - - - - - -
21/02:00am 10.6 NE 11 14 1021.1 - 0.2 - - - - - - -
21/01:30am 10.5 NNE 11 16 1021.3 - 0.2 - - - - - - -
21/01:00am 10.5 NNE 12 16 1021.7 - 0.2 - - - - - - -

Other Formats:

Comma delimited format used in spreadsheet applications
http://www.bom.gov.au/fwo/IDT60701/IDT60701.95805.axf

JavaScript Object Notation format (JSON) in row-major order
http://www.bom.gov.au/fwo/IDT60701/IDT60701.95805.json